createdAt,value
2019-06-01T00:01:48.785Z,23.70
2019-06-01T00:04:18.813Z,24.97
2019-06-01T00:06:48.961Z,25.70
2019-06-01T00:09:21.669Z,22.40
2019-06-01T00:11:51.406Z,25.50
2019-06-01T00:14:21.180Z,25.40
2019-06-01T00:16:50.949Z,24.53
2019-06-01T00:19:20.670Z,24.10
2019-06-01T00:21:50.421Z,26.30
2019-06-01T00:24:20.781Z,26.30
2019-06-01T00:26:50.455Z,25.50
2019-06-01T00:29:20.543Z,26.20
2019-06-01T00:31:51.987Z,25.03
2019-06-01T00:34:21.865Z,26.67
2019-06-01T00:36:52.033Z,28.00
2019-06-01T00:39:21.915Z,28.83
2019-06-01T00:41:52.463Z,26.37
2019-06-01T00:44:22.330Z,28.03
2019-06-01T00:46:52.797Z,29.40
2019-06-01T00:49:22.661Z,27.73
2019-06-01T00:51:53.674Z,31.40
2019-06-01T00:54:23.498Z,29.83
2019-06-01T00:56:53.878Z,28.40
2019-06-01T00:59:23.957Z,29.67
2019-06-01T01:01:54.238Z,26.87
2019-06-01T01:04:24.084Z,28.73
2019-06-01T01:06:54.808Z,31.83
2019-06-01T01:09:24.558Z,30.93
2019-06-01T01:11:55.316Z,30.97
2019-06-01T01:14:25.072Z,29.63
2019-06-01T01:16:55.786Z,31.43
2019-06-01T01:19:25.534Z,31.20
2019-06-01T01:21:56.458Z,30.50
2019-06-01T01:24:26.263Z,34.90
2019-06-01T01:26:56.777Z,29.27
2019-06-01T01:29:26.782Z,31.47
2019-06-01T01:31:57.369Z,32.67
2019-06-01T01:34:27.160Z,31.17
2019-06-01T01:36:58.092Z,33.10
2019-06-01T01:39:48.037Z,35.13
2019-06-01T01:42:17.820Z,33.80
2019-06-01T01:44:48.387Z,33.27
2019-06-01T01:47:18.229Z,33.47
2019-06-01T01:49:47.909Z,36.77
2019-06-01T01:52:17.624Z,34.37
2019-06-01T01:54:47.418Z,35.50
2019-06-01T01:57:17.090Z,34.00
2019-06-01T01:59:46.817Z,34.20
2019-06-01T02:02:16.569Z,32.93
2019-06-01T02:04:46.327Z,32.30
2019-06-01T02:07:16.057Z,33.57
2019-06-01T02:09:45.804Z,34.50
2019-06-01T02:12:15.569Z,33.07
2019-06-01T02:14:46.663Z,32.77
2019-06-01T02:17:16.426Z,35.43
2019-06-01T02:19:46.230Z,33.27
2019-06-01T02:22:28.326Z,33.17
2019-06-01T02:24:58.286Z,35.97
2019-06-01T02:27:28.034Z,31.43
2019-06-01T02:29:57.754Z,31.03
2019-06-01T02:32:27.468Z,32.97
2019-06-01T02:34:58.570Z,32.83
2019-06-01T02:37:28.629Z,31.70
2019-06-01T02:39:58.516Z,32.00
2019-06-01T02:42:28.191Z,32.90
2019-06-01T02:44:59.190Z,31.67
2019-06-01T02:47:28.937Z,32.13
2019-06-01T02:49:59.437Z,33.93
2019-06-01T02:52:29.298Z,31.60
2019-06-01T02:54:59.641Z,34.43
2019-06-01T02:57:29.414Z,33.30
2019-06-01T03:00:00.328Z,31.13
2019-06-01T03:02:30.678Z,30.07
2019-06-01T03:05:01.185Z,32.97
2019-06-01T03:07:33.315Z,33.07
2019-06-01T03:10:05.420Z,30.97
2019-06-01T03:12:43.325Z,31.27
2019-06-01T03:15:14.512Z,30.07
2019-06-01T03:17:49.667Z,32.13
2019-06-01T03:20:19.804Z,33.90
2019-06-01T03:22:54.757Z,31.03
2019-06-01T03:25:28.774Z,31.27
2019-06-01T03:28:02.140Z,32.97
2019-06-01T03:30:45.504Z,31.20
2019-06-01T03:33:15.275Z,30.60
2019-06-01T03:35:45.061Z,30.10
2019-06-01T03:38:14.889Z,31.47
2019-06-01T03:40:44.711Z,30.90
2019-06-01T03:43:15.060Z,33.87
2019-06-01T03:45:44.802Z,33.17
2019-06-01T03:48:14.515Z,31.07
2019-06-01T03:50:44.242Z,31.53
2019-06-01T03:53:13.979Z,30.27
2019-06-01T03:55:43.693Z,29.10
2019-06-01T03:58:13.503Z,31.30
2019-06-01T04:00:43.213Z,30.63
2019-06-01T04:03:12.965Z,27.70
2019-06-01T04:05:42.887Z,29.13
2019-06-01T04:08:12.563Z,28.50
2019-06-01T04:10:42.564Z,28.40
2019-06-01T04:13:12.305Z,26.80
2019-06-01T04:15:42.011Z,27.27
2019-06-01T04:18:14.006Z,26.20
2019-06-01T04:20:43.324Z,25.30
2019-06-01T04:23:13.350Z,27.67
2019-06-01T04:25:43.027Z,26.07
2019-06-01T04:28:13.065Z,26.67
2019-06-01T04:30:42.813Z,25.10
2019-06-01T04:33:13.283Z,25.77
2019-06-01T04:35:43.060Z,23.73
2019-06-01T04:38:13.393Z,24.97
2019-06-01T04:40:43.631Z,25.23
2019-06-01T04:43:14.173Z,25.80
2019-06-01T04:45:43.906Z,25.07
2019-06-01T04:48:14.698Z,24.87
2019-06-01T04:50:44.743Z,23.67
2019-06-01T04:53:15.137Z,21.67
2019-06-01T04:55:44.946Z,20.87
2019-06-01T04:58:15.121Z,22.10
2019-06-01T05:00:44.986Z,19.90
2019-06-01T05:03:15.347Z,20.33
2019-06-01T05:05:45.213Z,19.70
2019-06-01T05:08:15.643Z,18.63
2019-06-01T05:10:45.425Z,20.53
2019-06-01T05:13:15.698Z,21.33
2019-06-01T05:15:45.566Z,20.97
2019-06-01T05:18:18.343Z,18.83
2019-06-01T05:20:46.699Z,19.77
2019-06-01T05:23:16.957Z,19.50
2019-06-01T05:25:46.718Z,20.00
2019-06-01T05:28:17.475Z,20.17
2019-06-01T05:30:47.383Z,19.13
2019-06-01T05:33:30.981Z,20.73
2019-06-01T05:35:48.511Z,21.03
2019-06-01T05:38:18.623Z,19.00
2019-06-01T05:40:48.397Z,20.17
2019-06-01T05:43:21.109Z,20.07
2019-06-01T05:45:49.555Z,18.00
2019-06-01T05:48:24.816Z,18.33
2019-06-01T05:50:50.747Z,18.33
2019-06-01T05:53:20.525Z,19.43
2019-06-01T05:55:50.348Z,19.57
2019-06-01T05:58:21.638Z,19.03
2019-06-01T06:00:51.529Z,18.23
2019-06-01T06:03:32.003Z,20.17
2019-06-01T06:05:52.882Z,19.40
2019-06-01T06:08:22.604Z,17.70
2019-06-01T06:10:52.320Z,16.53
2019-06-01T06:13:22.316Z,18.27
2019-06-01T06:15:52.001Z,19.80
2019-06-01T06:18:22.013Z,18.40
2019-06-01T06:20:51.682Z,18.10
2019-06-01T06:23:40.771Z,17.97
2019-06-01T06:26:11.534Z,18.10
2019-06-01T06:28:41.277Z,17.87
2019-06-01T06:31:11.036Z,17.50
2019-06-01T06:33:55.544Z,17.50
2019-06-01T06:36:13.489Z,17.87
2019-06-01T06:38:43.414Z,18.10
2019-06-01T06:41:13.974Z,18.20
2019-06-01T06:43:43.880Z,16.73
2019-06-01T06:46:14.519Z,16.87
2019-06-01T06:48:44.299Z,17.43
2019-06-01T06:51:15.131Z,16.30
2019-06-01T06:53:44.987Z,17.90
2019-06-01T06:56:15.626Z,18.07
2019-06-01T06:58:45.415Z,16.73
2019-06-01T07:01:15.104Z,17.47
2019-06-01T07:03:45.112Z,16.80
2019-06-01T07:06:14.841Z,16.33
2019-06-01T07:08:44.830Z,16.37
2019-06-01T07:11:14.564Z,15.50
2019-06-01T07:13:44.266Z,15.20
2019-06-01T07:16:14.031Z,15.03
2019-06-01T07:18:43.736Z,14.60
2019-06-01T07:21:13.410Z,13.20
2019-06-01T07:23:43.128Z,13.10
2019-06-01T07:26:12.871Z,13.00
2019-06-01T07:28:44.563Z,14.23
2019-06-01T07:31:14.262Z,13.33
2019-06-01T07:33:44.112Z,12.50
2019-06-01T07:36:14.056Z,14.30
2019-06-01T07:38:43.834Z,12.93
2019-06-01T07:41:13.863Z,11.97
2019-06-01T07:43:43.543Z,11.57
2019-06-01T07:46:13.248Z,11.23
2019-06-01T07:48:42.962Z,10.93
2019-06-01T07:51:12.697Z,10.80
2019-06-01T07:53:42.375Z,10.00
2019-06-01T07:56:12.082Z,8.10
2019-06-01T07:58:41.824Z,10.10
2019-06-01T08:01:11.525Z,9.67
2019-06-01T08:03:41.253Z,9.67
2019-06-01T08:06:10.959Z,10.33
2019-06-01T08:08:40.667Z,7.17
2019-06-01T08:11:10.413Z,6.07
2019-06-01T08:13:40.441Z,9.50
2019-06-01T08:16:10.243Z,7.50
2019-06-01T08:18:40.262Z,7.50
2019-06-01T08:21:09.971Z,6.60
2019-06-01T08:23:39.939Z,6.60
2019-06-01T08:26:09.709Z,6.57
2019-06-01T08:28:39.378Z,5.80
2019-06-01T08:31:09.165Z,5.90
2019-06-01T08:33:38.899Z,6.50
2019-06-01T08:36:10.225Z,6.60
2019-06-01T08:38:40.170Z,5.70
2019-06-01T08:41:09.894Z,5.63
2019-06-01T08:43:39.561Z,5.60
2019-06-01T08:46:09.276Z,5.23
2019-06-01T08:48:38.995Z,4.90
2019-06-01T08:51:08.700Z,5.97
2019-06-01T08:53:38.393Z,5.80
2019-06-01T08:56:10.082Z,5.60
2019-06-01T08:58:39.937Z,5.70
2019-06-01T09:01:09.888Z,4.97
2019-06-01T09:03:46.260Z,5.43
2019-06-01T09:06:12.456Z,5.60
2019-06-01T09:08:42.190Z,5.33
2019-06-01T09:11:11.891Z,5.83
2019-06-01T09:13:41.612Z,5.70
2019-06-01T09:16:14.208Z,5.20
2019-06-01T09:18:44.033Z,5.47
2019-06-01T09:21:13.729Z,5.63
2019-06-01T09:23:43.448Z,6.40
2019-06-01T09:26:13.241Z,5.30
2019-06-01T09:28:42.989Z,6.40
2019-06-01T09:31:12.732Z,5.10
2019-06-01T09:33:42.424Z,5.70
2019-06-01T09:36:12.166Z,5.20
2019-06-01T09:38:42.123Z,5.33
2019-06-01T09:41:11.864Z,5.43
2019-06-01T09:43:41.917Z,5.50
2019-06-01T09:46:11.658Z,5.40
2019-06-01T09:48:41.363Z,6.17
2019-06-01T09:51:11.138Z,5.70
2019-06-01T09:53:40.865Z,6.20
2019-06-01T09:56:10.593Z,6.53
2019-06-01T09:58:40.426Z,5.80
2019-06-01T10:01:10.463Z,5.70
2019-06-01T10:03:40.304Z,5.73
2019-06-01T10:06:13.843Z,6.83
2019-06-01T10:08:42.402Z,5.90
2019-06-01T10:11:12.171Z,6.40
2019-06-01T10:13:42.631Z,6.20
2019-06-01T10:16:12.351Z,6.40
2019-06-01T10:18:43.117Z,5.83
2019-06-01T10:21:12.957Z,5.50
2019-06-01T10:23:42.905Z,5.10
2019-06-01T10:26:12.691Z,4.70
2019-06-01T10:28:42.415Z,5.23
2019-06-01T10:31:12.108Z,5.50
2019-06-01T10:33:43.202Z,5.23
2019-06-01T10:36:20.405Z,4.83
2019-06-01T10:38:44.975Z,5.10
2019-06-01T10:41:14.914Z,4.50
2019-06-01T10:43:44.772Z,4.93
2019-06-01T10:46:14.463Z,5.00
2019-06-01T10:48:44.137Z,4.27
2019-06-01T10:51:13.804Z,4.83
2019-06-01T10:53:43.870Z,3.90
2019-06-01T10:56:13.523Z,4.33
2019-06-01T10:58:56.723Z,4.57
2019-06-01T11:01:14.627Z,3.47
2019-06-01T11:03:44.330Z,3.93
2019-06-01T11:06:13.996Z,4.73
2019-06-01T11:08:43.683Z,4.20
2019-06-01T11:11:13.483Z,3.90
2019-06-01T11:13:43.356Z,3.60
2019-06-01T11:16:13.061Z,3.50
2019-06-01T11:18:43.590Z,3.90
2019-06-01T11:21:13.382Z,3.47
2019-06-01T11:23:46.120Z,3.20
2019-06-01T11:26:14.603Z,4.37
2019-06-01T11:28:44.484Z,4.00
2019-06-01T11:31:14.449Z,3.43
2019-06-01T11:33:44.353Z,3.33
2019-06-01T11:36:14.408Z,3.30
2019-06-01T11:38:44.835Z,3.37
2019-06-01T11:41:18.291Z,3.57
2019-06-01T11:43:46.299Z,2.80
2019-06-01T11:46:15.904Z,2.90
2019-06-01T11:48:45.632Z,3.17
2019-06-01T11:51:15.268Z,3.33
2019-06-01T11:53:45.685Z,3.10
2019-06-01T11:56:15.556Z,2.83
2019-06-01T11:58:45.612Z,2.90
2019-06-01T12:01:15.419Z,2.87
2019-06-01T12:03:46.189Z,3.13
2019-06-01T12:06:16.053Z,2.77
2019-06-01T12:08:46.352Z,2.50
2019-06-01T12:11:16.142Z,2.20
2019-06-01T12:13:46.565Z,3.03
2019-06-01T12:16:16.298Z,2.90
2019-06-01T12:18:46.889Z,2.77
2019-06-01T12:21:17.145Z,2.33
2019-06-01T12:23:47.589Z,2.80
2019-06-01T12:26:17.300Z,2.40
2019-06-01T12:28:47.892Z,3.00
2019-06-01T12:31:17.649Z,2.43
2019-06-01T12:33:48.685Z,2.30
2019-06-01T12:36:39.302Z,2.20
2019-06-01T12:39:09.799Z,2.10
2019-06-01T12:41:39.859Z,2.60
2019-06-01T12:44:12.969Z,2.17
2019-06-01T12:46:43.806Z,2.40
2019-06-01T12:49:13.713Z,2.13
2019-06-01T12:51:44.574Z,1.90
2019-06-01T12:54:14.504Z,1.90
2019-06-01T12:56:44.773Z,2.30
2019-06-01T12:59:14.563Z,2.30
2019-06-01T13:01:45.156Z,1.90
2019-06-01T13:04:14.995Z,2.40
2019-06-01T13:06:48.910Z,1.90
2019-06-01T13:09:16.265Z,2.47
2019-06-01T13:11:47.267Z,1.80
2019-06-01T13:14:17.040Z,2.20
2019-06-01T13:16:57.080Z,2.47
2019-06-01T13:19:18.248Z,2.00
2019-06-01T13:21:47.963Z,1.90
2019-06-01T13:24:17.667Z,2.10
2019-06-01T13:26:47.871Z,2.10
2019-06-01T13:29:17.659Z,1.60
2019-06-01T13:31:48.215Z,2.40
2019-06-01T13:34:17.937Z,2.17
2019-06-01T13:36:48.956Z,1.70
2019-06-01T13:39:19.394Z,2.40
2019-06-01T13:41:49.586Z,2.13
2019-06-01T13:44:19.547Z,1.90
2019-06-01T13:46:49.537Z,2.00
2019-06-01T13:49:19.254Z,2.60
2019-06-01T13:51:50.279Z,1.90
2019-06-01T13:54:20.473Z,2.60
2019-06-01T13:56:50.983Z,2.30
2019-06-01T13:59:20.814Z,2.10
2019-06-01T14:01:51.401Z,1.80
2019-06-01T14:04:21.250Z,2.23
2019-06-01T14:06:51.214Z,1.90
2019-06-01T14:09:22.124Z,2.00
2019-06-01T14:11:53.417Z,2.23
2019-06-01T14:14:23.413Z,1.77
2019-06-01T14:16:53.618Z,1.73
2019-06-01T14:19:23.425Z,1.63
2019-06-01T14:21:54.189Z,1.77
2019-06-01T14:24:23.975Z,2.10
2019-06-01T14:26:54.397Z,1.97
2019-06-01T14:29:24.208Z,1.30
2019-06-01T14:31:55.418Z,1.60
2019-06-01T14:34:25.493Z,1.60
2019-06-01T14:36:55.195Z,1.70
2019-06-01T14:39:25.067Z,1.60
2019-06-01T14:41:55.533Z,1.80
2019-06-01T14:44:25.283Z,1.80
2019-06-01T14:47:05.039Z,2.03
2019-06-01T14:49:26.406Z,1.63
2019-06-01T14:51:56.098Z,1.50
2019-06-01T14:54:25.806Z,1.63
2019-06-01T14:56:55.888Z,1.60
2019-06-01T14:59:25.628Z,1.50
2019-06-01T15:01:56.261Z,1.73
2019-06-01T15:04:26.001Z,1.70
2019-06-01T15:06:56.472Z,1.80
2019-06-01T15:09:26.345Z,1.60
2019-06-01T15:11:56.696Z,1.50
2019-06-01T15:14:26.471Z,1.53
2019-06-01T15:16:56.318Z,1.70
2019-06-01T15:19:26.134Z,2.40
2019-06-01T15:21:56.198Z,1.40
2019-06-01T15:24:26.036Z,2.03
2019-06-01T15:26:56.844Z,1.77
2019-06-01T15:29:26.656Z,1.50
2019-06-01T15:31:56.324Z,1.40
2019-06-01T15:34:26.012Z,1.60
2019-06-01T15:36:55.784Z,1.63
2019-06-01T15:39:25.737Z,1.90
2019-06-01T15:41:57.022Z,1.70
2019-06-01T15:44:26.764Z,1.70
2019-06-01T15:46:59.864Z,1.50
2019-06-01T15:49:29.787Z,1.63
2019-06-01T15:51:59.896Z,1.23
2019-06-01T15:54:29.637Z,1.60
2019-06-01T15:57:00.614Z,1.50
2019-06-01T15:59:30.385Z,1.63
2019-06-01T16:02:01.306Z,1.80
2019-06-01T16:04:31.188Z,1.50
2019-06-01T16:07:01.448Z,1.97
2019-06-01T16:09:42.152Z,1.90
2019-06-01T16:12:03.782Z,1.80
2019-06-01T16:14:33.478Z,1.73
2019-06-01T16:17:04.623Z,2.10
2019-06-01T16:19:35.183Z,1.80
2019-06-01T16:22:05.053Z,1.80
2019-06-01T16:24:34.795Z,1.80
2019-06-01T16:27:04.873Z,1.93
2019-06-01T16:29:34.658Z,1.63
2019-06-01T16:32:05.048Z,2.00
2019-06-01T16:34:34.929Z,2.10
2019-06-01T16:37:23.913Z,1.77
2019-06-01T16:40:02.126Z,1.63
2019-06-01T16:42:25.130Z,2.27
2019-06-01T16:44:55.340Z,2.13
2019-06-01T16:47:25.019Z,1.90
2019-06-01T16:49:55.749Z,1.60
2019-06-01T16:52:25.435Z,1.90
2019-06-01T16:54:56.210Z,2.00
2019-06-01T16:57:25.903Z,2.13
2019-06-01T16:59:56.321Z,2.10
2019-06-01T17:02:26.291Z,2.20
2019-06-01T17:04:56.523Z,1.73
2019-06-01T17:07:26.256Z,2.60
2019-06-01T17:09:56.635Z,1.93
2019-06-01T17:12:26.316Z,1.60
2019-06-01T17:14:56.809Z,1.60
2019-06-01T17:17:26.532Z,1.90
2019-06-01T17:19:56.947Z,2.80
2019-06-01T17:22:26.607Z,2.20
2019-06-01T17:24:57.580Z,1.93
2019-06-01T17:27:27.362Z,2.10
2019-06-01T17:29:58.078Z,2.07
2019-06-01T17:32:27.896Z,1.87
2019-06-01T17:34:58.583Z,1.97
2019-06-01T17:37:28.232Z,1.90
2019-06-01T17:39:57.875Z,2.27
2019-06-01T17:42:28.355Z,2.10
2019-06-01T17:44:58.386Z,2.30
2019-06-01T17:47:28.079Z,2.50
2019-06-01T17:49:57.811Z,2.20
2019-06-01T17:52:27.476Z,2.30
2019-06-01T17:54:57.177Z,2.20
2019-06-01T17:57:26.876Z,2.40
2019-06-01T17:59:56.842Z,2.80
2019-06-01T18:02:26.529Z,2.60
2019-06-01T18:04:56.215Z,2.43
2019-06-01T18:07:45.224Z,2.47
2019-06-01T18:10:16.057Z,2.53
2019-06-01T18:12:46.082Z,2.53
2019-06-01T18:15:16.151Z,2.43
2019-06-01T18:17:45.868Z,2.33
2019-06-01T18:20:16.609Z,2.40
2019-06-01T18:22:46.719Z,2.53
2019-06-01T18:25:22.716Z,3.00
2019-06-01T18:27:52.513Z,2.77
2019-06-01T18:30:23.140Z,2.60
2019-06-01T18:32:54.474Z,2.77
2019-06-01T18:35:24.380Z,2.87
2019-06-01T18:37:54.349Z,2.90
2019-06-01T18:40:26.081Z,2.80
2019-06-01T18:43:01.913Z,2.87
2019-06-01T18:45:32.415Z,2.90
2019-06-01T18:48:03.625Z,2.80
2019-06-01T18:50:33.515Z,3.00
2019-06-01T18:53:03.892Z,2.70
2019-06-01T18:55:35.814Z,2.90
2019-06-01T18:58:06.506Z,3.47
2019-06-01T19:00:39.589Z,3.00
2019-06-01T19:03:08.993Z,3.63
2019-06-01T19:05:39.241Z,3.80
2019-06-01T19:08:09.379Z,3.27
2019-06-01T19:10:39.429Z,3.20
2019-06-01T19:13:09.571Z,3.80
2019-06-01T19:15:39.660Z,3.27
2019-06-01T19:18:10.488Z,3.13
2019-06-01T19:20:40.253Z,3.70
2019-06-01T19:23:10.771Z,4.43
2019-06-01T19:25:40.578Z,7.10
2019-06-01T19:28:11.024Z,5.90
2019-06-01T19:30:42.912Z,4.00
2019-06-01T19:33:15.367Z,3.90
2019-06-01T19:35:44.194Z,4.80
2019-06-01T19:38:15.330Z,5.03
2019-06-01T19:40:45.266Z,6.00
2019-06-01T19:43:15.655Z,4.53
2019-06-01T19:45:45.668Z,6.40
2019-06-01T19:48:16.540Z,5.03
2019-06-01T19:50:46.408Z,6.53
2019-06-01T19:53:16.788Z,6.63
2019-06-01T19:55:46.615Z,7.20
2019-06-01T19:58:17.253Z,7.10
2019-06-01T20:00:48.480Z,6.70
2019-06-01T20:03:21.876Z,6.20
2019-06-01T20:05:49.580Z,7.00
2019-06-01T20:08:19.531Z,7.50
2019-06-01T20:10:49.211Z,7.10
2019-06-01T20:13:19.324Z,6.37
2019-06-01T20:15:48.988Z,6.17
2019-06-01T20:18:19.146Z,6.33
2019-06-01T20:20:49.089Z,6.60
2019-06-01T20:23:19.521Z,6.43
2019-06-01T20:25:49.423Z,6.40
2019-06-01T20:28:19.735Z,6.40
2019-06-01T20:30:49.622Z,6.50
2019-06-01T20:33:20.484Z,8.13
2019-06-01T20:35:50.781Z,7.93
2019-06-01T20:38:20.696Z,8.23
2019-06-01T20:40:50.531Z,8.80
2019-06-01T20:43:20.820Z,9.73
2019-06-01T20:45:50.644Z,8.23
2019-06-01T20:48:20.948Z,7.90
2019-06-01T20:50:51.062Z,8.07
2019-06-01T20:53:21.125Z,8.23
2019-06-01T20:55:50.885Z,8.93
2019-06-01T20:58:22.064Z,7.43
2019-06-01T21:00:51.985Z,9.50
2019-06-01T21:03:22.001Z,7.53
2019-06-01T21:05:51.720Z,8.87
2019-06-01T21:08:22.404Z,7.77
2019-06-01T21:10:52.423Z,7.30
2019-06-01T21:13:22.331Z,8.90
2019-06-01T21:15:52.133Z,9.20
2019-06-01T21:18:22.730Z,13.07
2019-06-01T21:20:52.622Z,12.93
2019-06-01T21:23:22.934Z,12.17
2019-06-01T21:25:52.846Z,13.47
2019-06-01T21:28:23.836Z,12.07
2019-06-01T21:30:54.050Z,10.43
2019-06-01T21:33:28.046Z,9.63
2019-06-01T21:36:15.248Z,11.43
2019-06-01T21:38:45.293Z,11.53
2019-06-01T21:41:15.490Z,12.80
2019-06-01T21:43:45.308Z,12.27
2019-06-01T21:46:15.561Z,11.60
2019-06-01T21:48:45.326Z,12.80
2019-06-01T21:51:15.708Z,12.07
2019-06-01T21:53:45.403Z,12.23
2019-06-01T21:56:18.429Z,12.10
2019-06-01T21:58:46.575Z,12.00
2019-06-01T22:01:16.450Z,11.40
2019-06-01T22:03:46.484Z,11.27
2019-06-01T22:06:17.043Z,11.00
2019-06-01T22:08:52.742Z,9.90
2019-06-01T22:11:19.389Z,11.03
2019-06-01T22:13:49.125Z,10.07
2019-06-01T22:16:19.506Z,12.20
2019-06-01T22:18:49.280Z,11.90
2019-06-01T22:21:19.680Z,11.70
2019-06-01T22:23:49.425Z,12.00
2019-06-01T22:26:19.862Z,13.00
2019-06-01T22:28:49.884Z,11.27
2019-06-01T22:31:20.185Z,11.70
2019-06-01T22:33:50.066Z,12.90
2019-06-01T22:36:20.499Z,13.27
2019-06-01T22:38:50.280Z,12.27
2019-06-01T22:41:20.050Z,12.70
2019-06-01T22:43:49.856Z,14.20
2019-06-01T22:46:20.368Z,16.00
2019-06-01T22:48:50.149Z,14.90
2019-06-01T22:51:20.799Z,15.77
2019-06-01T22:53:50.551Z,17.43
2019-06-01T22:56:21.165Z,15.17
2019-06-01T22:58:51.301Z,15.07
2019-06-01T23:01:21.148Z,13.77
2019-06-01T23:03:50.879Z,14.60
2019-06-01T23:06:20.967Z,15.07
2019-06-01T23:08:50.663Z,13.00
2019-06-01T23:11:21.289Z,12.30
2019-06-01T23:13:53.651Z,12.83
2019-06-01T23:16:23.646Z,12.30
2019-06-01T23:18:53.401Z,10.30
2019-06-01T23:21:23.791Z,10.33
2019-06-01T23:23:53.581Z,11.20
2019-06-01T23:26:24.132Z,10.77
2019-06-01T23:28:54.147Z,11.20
2019-06-01T23:31:24.300Z,10.10
2019-06-01T23:33:54.313Z,10.73
2019-06-01T23:36:24.497Z,10.70
2019-06-01T23:38:54.322Z,12.27
2019-06-01T23:41:24.496Z,10.93
2019-06-01T23:44:10.466Z,12.23
2019-06-01T23:46:26.888Z,12.40
2019-06-01T23:48:56.941Z,10.90
2019-06-01T23:51:27.422Z,11.47
2019-06-01T23:53:57.367Z,11.17
2019-06-01T23:56:27.754Z,13.27
2019-06-01T23:58:57.721Z,13.30
